Time;durP1;ratioP1;P1;durP2;ratioP2;P2;SDS_P1;SDS_P2;PMS_P1;PMS_P2;Temp;Humidity;BMP_temperature;BMP_pressure;BME280_temperature;BME280_humidity;BME280_pressure;Samples;Min_cycle;Max_cycle;Signal;HPM_P1;HPM_P2
2023/04/21 00:02:14;;;;;;;35.20;22.03;;;;;;;7.54;86.10;100968.19;5116903;28;20196;-68
2023/04/21 00:04:41;;;;;;;42.93;24.53;;;;;;;7.45;87.15;100969.56;5098839;28;20209;-69
2023/04/21 00:07:07;;;;;;;35.13;22.73;;;;;;;7.43;87.63;100971.47;5116818;28;20661;-68
2023/04/21 00:09:34;;;;;;;33.27;22.57;;;;;;;7.41;88.00;100968.00;5116734;28;20624;-68
2023/04/21 00:12:00;;;;;;;32.60;22.90;;;;;;;7.44;87.33;100970.50;5116724;28;20188;-68
2023/04/21 00:14:27;;;;;;;29.90;22.03;;;;;;;7.41;88.09;100970.69;5117203;28;20687;-68
2023/04/21 00:16:53;;;;;;;39.23;24.07;;;;;;;7.40;88.90;100964.50;5117203;28;20669;-68
2023/04/21 00:19:19;;;;;;;37.43;23.73;;;;;;;7.33;89.25;100957.78;5116859;28;20189;-68
2023/04/21 00:21:46;;;;;;;38.90;24.63;;;;;;;7.39;88.89;100948.59;5116568;28;20195;-68
2023/04/21 00:24:12;;;;;;;41.37;25.07;;;;;;;7.39;89.15;100943.25;5116665;28;20194;-69
2023/04/21 00:26:39;;;;;;;36.80;23.63;;;;;;;7.44;88.95;100946.53;5116338;28;20193;-68
2023/04/21 00:29:06;;;;;;;45.10;24.50;;;;;;;7.41;89.11;100950.22;5098937;28;20205;-68
2023/04/21 00:31:32;;;;;;;44.17;24.43;;;;;;;7.42;89.28;100954.63;5098144;28;20651;-68
2023/04/21 00:33:59;;;;;;;36.63;22.90;;;;;;;7.42;89.45;100943.97;5098056;28;20292;-68
2023/04/21 00:36:27;;;;;;;39.43;24.50;;;;;;;7.43;89.59;100952.81;5097939;28;20217;-68
2023/04/21 00:38:53;;;;;;;36.73;23.80;;;;;;;7.47;89.32;100946.38;5116241;28;20206;-68
2023/04/21 00:41:20;;;;;;;31.80;22.50;;;;;;;7.47;89.75;100943.72;5097901;28;20241;-68
2023/04/21 00:44:00;;;;;;;39.10;24.00;;;;;;;7.52;89.71;100938.09;5116948;28;20184;-68
2023/04/21 00:46:27;;;;;;;39.50;23.37;;;;;;;7.54;89.63;100933.53;5114989;28;20227;-68
2023/04/21 00:48:54;;;;;;;35.23;22.63;;;;;;;7.52;90.07;100932.75;5116211;28;20236;-68
2023/04/21 00:51:20;;;;;;;36.73;23.07;;;;;;;7.55;89.83;100928.13;5116017;28;20556;-68
2023/04/21 00:53:47;;;;;;;35.07;22.43;;;;;;;7.58;89.94;100929.78;5097933;28;20205;-68
2023/04/21 00:56:13;;;;;;;37.97;23.70;;;;;;;7.59;89.92;100920.81;5097577;28;20209;-68
2023/04/21 00:58:41;;;;;;;38.47;23.80;;;;;;;7.59;89.83;100926.16;5097831;28;20199;-68
2023/04/21 01:01:07;;;;;;;39.70;24.60;;;;;;;7.61;89.93;100938.47;5115847;28;20531;-68
2023/04/21 01:03:34;;;;;;;44.03;24.23;;;;;;;7.59;89.64;100937.69;5115790;28;20234;-68
2023/04/21 01:06:01;;;;;;;36.40;24.83;;;;;;;7.60;90.29;100941.22;5115797;28;20704;-68
2023/04/21 01:08:28;;;;;;;37.23;23.80;;;;;;;7.58;89.92;100940.44;5097342;28;20191;-68
2023/04/21 01:10:55;;;;;;;35.97;24.00;;;;;;;7.61;89.90;100934.91;5097327;28;20192;-68
2023/04/21 01:13:21;;;;;;;40.27;24.33;;;;;;;7.58;90.10;100927.97;5115571;28;20555;-68
2023/04/21 01:15:48;;;;;;;40.10;25.77;;;;;;;7.60;90.14;100933.22;5115512;28;20232;-68
2023/04/21 01:18:15;;;;;;;43.50;25.73;;;;;;;7.64;90.14;100927.63;5115731;28;20187;-68
2023/04/21 01:20:43;;;;;;;42.13;27.03;;;;;;;7.66;89.69;100928.41;5097191;28;20185;-68
2023/04/21 01:23:09;;;;;;;51.97;27.40;;;;;;;7.61;89.91;100927.81;5115666;28;20178;-68
2023/04/21 01:25:36;;;;;;;54.20;27.83;;;;;;;7.58;90.82;100924.44;5115740;28;20211;-68
2023/04/21 01:28:03;;;;;;;51.00;26.10;;;;;;;7.61;90.52;100917.16;5096976;28;20201;-68
2023/04/21 01:30:29;;;;;;;50.50;28.67;;;;;;;7.54;90.68;100923.78;5096916;28;20310;-68
2023/04/21 01:32:59;;;;;;;51.67;28.47;;;;;;;7.53;90.74;100923.84;5115749;28;20658;-68
2023/04/21 01:35:25;;;;;;;55.20;28.17;;;;;;;7.49;91.23;100920.47;5096846;28;20215;-68
2023/04/21 01:37:52;;;;;;;51.27;27.90;;;;;;;7.48;90.94;100910.78;5096824;28;20659;-68
2023/04/21 01:40:18;;;;;;;52.87;28.43;;;;;;;7.49;91.32;100911.63;5115588;28;20227;-68
2023/04/21 01:42:44;;;;;;;48.30;28.10;;;;;;;7.49;91.37;100900.97;5096719;28;20189;-68
2023/04/21 01:45:12;;;;;;;48.83;27.33;;;;;;;7.53;91.21;100907.84;5114875;28;20208;-68
2023/04/21 01:47:38;;;;;;;50.77;27.53;;;;;;;7.51;91.78;100907.06;5079839;28;20296;-68
2023/04/21 01:50:05;;;;;;;44.37;26.53;;;;;;;7.50;91.74;100914.22;5114802;28;20233;-68
2023/04/21 01:52:31;;;;;;;50.07;26.60;;;;;;;7.49;91.83;100917.81;5114791;28;20199;-68
2023/04/21 01:54:59;;;;;;;45.50;27.07;;;;;;;7.45;91.98;100908.28;5096412;28;20696;-69
2023/04/21 01:57:25;;;;;;;48.03;26.20;;;;;;;7.49;91.42;100900.97;5115037;28;20216;-69
2023/04/21 01:59:52;;;;;;;42.73;26.33;;;;;;;7.45;91.68;100895.81;5096365;28;20288;-69
2023/04/21 02:02:18;;;;;;;46.67;26.50;;;;;;;7.40;92.24;100913.03;5096336;28;20189;-69
2023/04/21 02:04:44;;;;;;;52.93;28.63;;;;;;;7.36;92.20;100900.81;5114488;28;20210;-69
2023/04/21 02:07:11;;;;;;;48.37;26.07;;;;;;;7.41;92.01;100899.59;5096546;28;20285;-69
2023/04/21 02:09:39;;;;;;;48.33;27.77;;;;;;;7.46;92.25;100900.19;5096486;28;20312;-68
2023/04/21 02:12:06;;;;;;;52.63;28.83;;;;;;;7.44;91.69;100895.88;5114410;28;20193;-68
2023/04/21 02:14:32;;;;;;;43.10;26.60;;;;;;;7.38;92.33;100905.09;5114348;28;20202;-69
2023/04/21 02:16:58;;;;;;;54.70;28.20;;;;;;;7.44;92.06;100896.75;5096132;28;20193;-68
2023/04/21 02:19:25;;;;;;;41.23;25.47;;;;;;;7.37;91.82;100894.50;5096090;28;20178;-68
2023/04/21 02:21:53;;;;;;;53.00;29.00;;;;;;;7.41;92.53;100902.25;5096043;28;20605;-68
2023/04/21 02:24:20;;;;;;;48.10;27.20;;;;;;;7.41;92.42;100890.75;5096118;28;20288;-69
2023/04/21 02:26:47;;;;;;;47.53;28.17;;;;;;;7.37;92.48;100890.03;5096453;28;20637;-68
2023/04/21 02:29:13;;;;;;;55.23;30.27;;;;;;;7.38;92.49;100897.09;5114036;28;20680;-68
2023/04/21 02:31:40;;;;;;;53.97;29.87;;;;;;;7.39;92.84;100890.81;5114636;28;20280;-68
2023/04/21 02:34:26;;;;;;;54.30;28.83;;;;;;;7.32;92.93;100888.59;5095786;28;20192;-69
2023/04/21 02:36:53;;;;;;;53.50;28.50;;;;;;;7.32;93.24;100881.44;5096651;28;20546;-68
2023/04/21 02:39:19;;;;;;;54.93;29.60;;;;;;;7.42;92.92;100876.47;5095766;28;20575;-68
2023/04/21 02:41:46;;;;;;;60.60;29.57;;;;;;;7.39;92.85;100876.66;5114463;28;20659;-68
2023/04/21 02:44:12;;;;;;;53.03;28.60;;;;;;;7.35;93.22;100880.41;5095615;28;20716;-69
2023/04/21 02:46:42;;;;;;;57.70;30.70;;;;;;;7.37;92.97;100870.53;5095637;28;20200;-68
2023/04/21 02:49:09;;;;;;;57.33;29.67;;;;;;;7.38;93.19;100869.59;5113764;28;20211;-68
2023/04/21 02:51:36;;;;;;;50.93;29.43;;;;;;;7.32;93.71;100885.94;5095653;28;20206;-68
2023/04/21 02:54:02;;;;;;;56.83;30.83;;;;;;;7.28;93.78;100881.72;5113787;28;20264;-68
2023/04/21 02:56:30;;;;;;;55.40;29.67;;;;;;;7.30;93.89;100871.81;5095466;28;20212;-68
2023/04/21 02:58:56;;;;;;;50.30;29.33;;;;;;;7.32;94.07;100868.13;5114015;28;20186;-68
2023/04/21 03:01:23;;;;;;;55.63;31.67;;;;;;;7.27;94.25;100882.66;5113703;28;20178;-68
2023/04/21 03:03:50;;;;;;;61.87;30.23;;;;;;;7.33;94.54;100882.34;5113660;28;20181;-68
2023/04/21 03:06:16;;;;;;;54.33;31.53;;;;;;;7.36;93.91;100887.47;5113586;28;20282;-68
2023/04/21 03:08:44;;;;;;;55.33;31.57;;;;;;;7.36;94.47;100882.16;5095436;28;20555;-68
2023/04/21 03:11:11;;;;;;;51.03;30.73;;;;;;;7.40;94.75;100886.38;5117686;28;20541;-68
2023/04/21 03:13:37;;;;;;;54.23;30.60;;;;;;;7.45;94.21;100878.97;5099661;28;20189;-68
2023/04/21 03:16:04;;;;;;;52.67;31.27;;;;;;;7.40;94.21;100891.69;5118033;28;20687;-68
2023/04/21 03:18:34;;;;;;;52.40;30.27;;;;;;;7.41;94.24;100891.59;5118372;28;20245;-68
2023/04/21 03:21:01;;;;;;;57.77;30.17;;;;;;;7.45;94.01;100889.63;5118002;28;20165;-68
2023/04/21 03:23:27;;;;;;;50.53;28.97;;;;;;;7.31;94.55;100893.06;5118037;28;20196;-69
2023/04/21 03:25:53;;;;;;;60.10;31.40;;;;;;;7.30;94.68;100901.97;5117559;28;20706;-69
2023/04/21 03:28:20;;;;;;;57.70;30.10;;;;;;;7.40;94.46;100902.38;5117616;28;20189;-69
2023/04/21 03:30:46;;;;;;;56.33;29.93;;;;;;;7.42;94.40;100893.34;5117802;28;20198;-69
2023/04/21 03:33:13;;;;;;;49.33;29.50;;;;;;;7.46;94.66;100891.34;5099262;28;20185;-69
2023/04/21 03:35:39;;;;;;;52.97;28.83;;;;;;;7.51;94.11;100883.94;5099182;28;20231;-69
2023/04/21 03:38:07;;;;;;;60.80;30.33;;;;;;;7.51;94.48;100877.75;5099185;28;20194;-69
2023/04/21 03:40:34;;;;;;;51.37;29.53;;;;;;;7.53;94.61;100890.06;5099405;28;20213;-69
2023/04/21 03:43:01;;;;;;;59.50;30.60;;;;;;;7.53;94.19;100894.53;5099340;28;20717;-69
2023/04/21 03:45:28;;;;;;;56.63;30.63;;;;;;;7.54;94.76;100893.56;5099004;28;20234;-69
2023/04/21 03:47:57;;;;;;;58.87;29.70;;;;;;;7.55;94.17;100892.63;5098963;28;20196;-69
2023/04/21 03:50:23;;;;;;;52.40;29.90;;;;;;;7.53;94.11;100889.19;5117092;28;20215;-69
2023/04/21 03:52:49;;;;;;;60.90;30.30;;;;;;;7.55;94.80;100889.97;5117427;28;20185;-69
2023/04/21 03:55:16;;;;;;;55.87;30.50;;;;;;;7.55;94.32;100895.31;5117039;28;20204;-69
2023/04/21 03:57:42;;;;;;;53.80;30.73;;;;;;;7.61;94.60;100884.28;5117406;28;20180;-69
2023/04/21 04:00:09;;;;;;;55.83;30.77;;;;;;;7.60;94.67;100880.75;5117275;28;20188;-69
2023/04/21 04:02:39;;;;;;;58.37;32.17;;;;;;;7.55;94.90;100881.97;5117785;28;20190;-69
2023/04/21 04:05:07;;;;;;;51.97;30.67;;;;;;;7.60;94.53;100888.75;5117618;28;20235;-69
2023/04/21 04:07:34;;;;;;;55.10;29.83;;;;;;;7.56;94.51;100887.19;5116854;28;20274;-69
2023/04/21 04:10:00;;;;;;;55.27;30.23;;;;;;;7.55;94.40;100879.31;5116720;28;20207;-69
2023/04/21 04:12:27;;;;;;;56.77;30.83;;;;;;;7.56;94.37;100879.22;5117041;28;20186;-69
2023/04/21 04:14:53;;;;;;;53.53;30.40;;;;;;;7.57;94.69;100878.28;5116818;28;20206;-69
2023/04/21 04:17:19;;;;;;;57.23;30.00;;;;;;;7.56;94.94;100873.88;5116888;28;20185;-68
2023/04/21 04:19:46;;;;;;;52.93;29.97;;;;;;;7.58;94.83;100881.78;5117192;28;20611;-69
2023/04/21 04:22:12;;;;;;;58.70;32.90;;;;;;;7.61;94.65;100873.63;5116459;28;20193;-68
2023/04/21 04:24:38;;;;;;;64.47;32.27;;;;;;;7.62;94.33;100870.03;5116435;28;20212;-69
2023/04/21 04:27:05;;;;;;;60.60;30.67;;;;;;;7.64;94.44;100871.66;5116470;28;20195;-69
2023/04/21 04:29:32;;;;;;;53.27;30.77;;;;;;;7.63;94.80;100880.56;5116587;28;20211;-69
2023/04/21 04:32:00;;;;;;;56.53;31.23;;;;;;;7.60;94.33;100877.25;5116844;28;20185;-69
2023/04/21 04:34:26;;;;;;;61.53;32.40;;;;;;;7.62;94.38;100872.69;5116233;28;20190;-69
2023/04/21 04:36:53;;;;;;;62.77;32.70;;;;;;;7.62;94.90;100872.69;5116779;28;20176;-69
2023/04/21 04:39:21;;;;;;;52.13;31.37;;;;;;;7.57;94.97;100867.63;5116229;28;20191;-68
2023/04/21 04:41:47;;;;;;;52.07;30.40;;;;;;;7.61;94.78;100882.50;5116457;28;20191;-68
2023/04/21 04:44:16;;;;;;;55.10;30.70;;;;;;;7.60;94.83;100880.75;5116203;28;20274;-69
2023/04/21 04:46:44;;;;;;;67.90;32.70;;;;;;;7.60;94.63;100883.44;5116012;28;20177;-69
2023/04/21 04:49:10;;;;;;;59.40;32.83;;;;;;;7.61;94.97;100884.28;5116285;28;20189;-69
2023/04/21 04:51:37;;;;;;;61.47;32.63;;;;;;;7.63;94.51;100885.91;5115908;28;20706;-69
2023/04/21 04:54:03;;;;;;;63.73;34.27;;;;;;;7.64;95.03;100882.31;5115916;28;20655;-69
2023/04/21 04:56:29;;;;;;;55.17;30.70;;;;;;;7.65;94.62;100877.84;5115820;28;20209;-69
2023/04/21 04:58:56;;;;;;;60.53;31.47;;;;;;;7.65;94.81;100878.69;5115847;28;20189;-69
2023/04/21 05:01:28;;;;;;;66.30;33.20;;;;;;;7.66;94.67;100888.41;5115835;28;20246;-69
2023/04/21 05:03:55;;;;;;;63.13;32.57;;;;;;;7.69;94.98;100892.72;5116355;28;20190;-69
2023/04/21 05:06:22;;;;;;;59.23;32.33;;;;;;;7.70;94.70;100894.41;5115653;28;20347;-69
2023/04/21 05:08:49;;;;;;;54.57;30.27;;;;;;;7.71;95.02;100892.59;5115988;28;20185;-69
2023/04/21 05:11:15;;;;;;;59.27;31.00;;;;;;;7.73;95.22;100894.22;5115555;28;20213;-69
2023/04/21 05:13:41;;;;;;;57.93;33.10;;;;;;;7.81;94.84;100893.81;5115586;28;20224;-69
2023/04/21 05:16:09;;;;;;;65.63;33.27;;;;;;;7.81;95.04;100900.00;5115484;28;20209;-69
2023/04/21 05:18:36;;;;;;;59.87;32.23;;;;;;;7.79;94.91;100887.72;5115814;28;20576;-69
2023/04/21 05:21:03;;;;;;;62.23;33.33;;;;;;;7.83;94.68;100882.13;5115676;28;20185;-69
2023/04/21 05:23:30;;;;;;;61.77;33.67;;;;;;;7.88;94.92;100879.19;5115894;28;20185;-69
2023/04/21 05:25:56;;;;;;;67.33;35.23;;;;;;;7.88;94.95;100881.84;5115176;28;20762;-69
2023/04/21 05:28:23;;;;;;;65.53;33.20;;;;;;;7.85;94.68;100882.00;5115370;28;20714;-69
2023/04/21 05:30:52;;;;;;;62.37;33.20;;;;;;;7.85;94.56;100887.34;5097032;28;20217;-69
2023/04/21 05:33:20;;;;;;;63.93;34.47;;;;;;;7.82;95.02;100883.03;5115140;28;20225;-69
2023/04/21 05:35:46;;;;;;;66.53;32.83;;;;;;;7.83;94.83;100878.59;5114978;28;20221;-69
2023/04/21 05:38:12;;;;;;;66.63;34.40;;;;;;;7.87;94.39;100883.63;5115104;28;20219;-69
2023/04/21 05:40:39;;;;;;;66.20;34.70;;;;;;;7.87;95.03;100890.78;5115006;28;20276;-69
2023/04/21 05:43:05;;;;;;;60.50;34.80;;;;;;;7.88;94.67;100890.69;5114841;28;20666;-69
2023/04/21 05:45:31;;;;;;;62.37;34.40;;;;;;;7.86;94.63;100894.41;5114926;28;20213;-69
2023/04/21 05:47:58;;;;;;;67.50;34.60;;;;;;;7.93;94.74;100892.25;5115019;28;20202;-69
2023/04/21 05:50:27;;;;;;;63.07;33.30;;;;;;;7.96;95.14;100897.41;5114750;28;20208;-69
2023/04/21 05:52:53;;;;;;;64.17;33.47;;;;;;;7.99;94.86;100900.72;5115000;28;20192;-69
2023/04/21 05:55:20;;;;;;;59.67;33.57;;;;;;;8.07;95.05;100898.50;5114924;28;20265;-69
2023/04/21 05:57:46;;;;;;;64.33;33.13;;;;;;;8.10;95.42;100905.44;5114667;28;20271;-69
2023/04/21 06:00:13;;;;;;;63.93;34.70;;;;;;;8.14;95.53;100904.34;5115150;28;20260;-69
2023/04/21 06:02:39;;;;;;;60.27;32.77;;;;;;;8.18;94.96;100892.50;5114837;28;20189;-69
2023/04/21 06:05:06;;;;;;;68.20;36.53;;;;;;;8.26;95.09;100889.38;5114473;28;20209;-69
2023/04/21 06:07:36;;;;;;;66.00;34.57;;;;;;;8.30;95.17;100891.78;5114523;28;20185;-69
2023/04/21 06:10:03;;;;;;;68.17;35.77;;;;;;;8.34;95.12;100892.47;5114323;28;20206;-69
2023/04/21 06:12:29;;;;;;;62.17;34.50;;;;;;;8.39;94.94;100895.72;5096265;28;20264;-69
2023/04/21 06:14:56;;;;;;;60.43;33.33;;;;;;;8.41;95.02;100895.66;5114600;28;20292;-69
2023/04/21 06:17:23;;;;;;;64.83;33.93;;;;;;;8.42;94.94;100900.03;5114483;28;20196;-69
2023/04/21 06:19:52;;;;;;;65.43;34.90;;;;;;;8.35;95.04;100896.00;5114571;28;20545;-69
2023/04/21 06:22:19;;;;;;;69.27;34.07;;;;;;;8.41;95.48;100899.19;5114525;28;20215;-69
2023/04/21 06:24:46;;;;;;;72.90;35.80;;;;;;;8.47;95.20;100898.81;5114149;28;20211;-69
2023/04/21 06:27:12;;;;;;;65.70;34.23;;;;;;;8.50;95.37;100892.44;5114564;28;20284;-69
2023/04/21 06:29:40;;;;;;;69.43;35.03;;;;;;;8.57;94.88;100887.56;5114415;28;20607;-69
2023/04/21 06:32:08;;;;;;;62.97;32.90;;;;;;;8.62;95.18;100885.47;5113972;28;20640;-69
2023/04/21 06:34:34;;;;;;;63.07;35.57;;;;;;;8.65;94.96;100888.84;5113951;28;20258;-69
2023/04/21 06:37:01;;;;;;;66.77;35.53;;;;;;;8.72;95.17;100882.16;5114273;28;20542;-69
2023/04/21 06:39:27;;;;;;;61.87;34.17;;;;;;;8.73;94.91;100889.22;5113900;28;20219;-69
2023/04/21 06:41:54;;;;;;;60.67;35.50;;;;;;;8.79;95.30;100876.44;5114395;28;20259;-69
2023/04/21 06:44:25;;;;;;;62.90;35.97;;;;;;;8.81;95.05;100891.44;5095075;28;20246;-69
2023/04/21 06:46:51;;;;;;;68.83;34.63;;;;;;;8.86;95.39;100883.09;5095812;28;20213;-69
2023/04/21 06:49:18;;;;;;;68.23;36.63;;;;;;;8.95;95.21;100885.19;5114285;28;20275;-69
2023/04/21 06:51:45;;;;;;;60.03;33.77;;;;;;;9.01;95.36;100889.31;5114302;28;20208;-69
2023/04/21 06:54:11;;;;;;;69.73;35.00;;;;;;;9.03;95.32;100880.25;5113790;28;20209;-69
2023/04/21 06:56:38;;;;;;;64.03;34.93;;;;;;;9.12;95.31;100870.78;5113736;28;20188;-69
2023/04/21 06:59:04;;;;;;;60.20;35.30;;;;;;;9.18;95.14;100874.91;5113682;28;20212;-69
2023/04/21 07:01:30;;;;;;;63.50;34.87;;;;;;;9.22;95.02;100874.59;5114000;28;20228;-69
2023/04/21 07:03:57;;;;;;;66.00;36.47;;;;;;;9.16;95.28;100874.97;5113671;28;20185;-69
2023/04/21 07:06:24;;;;;;;71.17;34.93;;;;;;;9.20;94.88;100881.88;5095586;28;20307;-69
2023/04/21 07:08:50;;;;;;;63.47;34.93;;;;;;;9.27;95.25;100888.53;5113672;28;20192;-69
2023/04/21 07:11:16;;;;;;;62.63;34.37;;;;;;;9.30;95.30;100893.66;5095507;28;20239;-69
2023/04/21 07:13:43;;;;;;;65.10;36.47;;;;;;;9.42;95.00;100885.84;5095838;28;20195;-69
2023/04/21 07:16:09;;;;;;;69.73;36.20;;;;;;;9.43;94.91;100890.22;5113903;28;20220;-69
2023/04/21 07:18:38;;;;;;;60.20;34.87;;;;;;;9.46;94.45;100888.22;5113524;28;20190;-69
2023/04/21 07:21:05;;;;;;;63.57;35.47;;;;;;;9.49;94.34;100888.00;5113791;28;20218;-69
2023/04/21 07:23:31;;;;;;;58.70;34.43;;;;;;;9.46;94.48;100874.84;5113478;28;20189;-69
2023/04/21 07:25:58;;;;;;;68.00;35.33;;;;;;;9.55;94.38;100865.34;5113764;28;20239;-69
2023/04/21 07:28:25;;;;;;;71.97;35.93;;;;;;;9.57;94.51;100872.31;5113308;28;20227;-69
2023/04/21 07:30:51;;;;;;;56.57;34.27;;;;;;;9.59;94.40;100873.06;5113622;28;20801;-69
2023/04/21 07:33:18;;;;;;;65.13;36.83;;;;;;;9.72;94.34;100858.88;5113640;28;20189;-69
2023/04/21 07:35:44;;;;;;;64.23;36.80;;;;;;;9.85;94.04;100862.47;5114123;28;20622;-69
2023/04/21 07:38:11;;;;;;;61.50;34.87;;;;;;;9.89;94.13;100860.44;5095367;28;20221;-69
2023/04/21 07:40:37;;;;;;;64.27;36.83;;;;;;;10.00;93.96;100863.25;5113346;28;20185;-69
2023/04/21 07:43:04;;;;;;;61.47;36.77;;;;;;;10.13;93.39;100861.50;5095921;28;20280;-69
2023/04/21 07:45:30;;;;;;;58.93;35.47;;;;;;;10.16;92.83;100868.44;5113450;28;20625;-69
2023/04/21 07:47:58;;;;;;;63.30;34.50;;;;;;;10.14;92.99;100865.00;5113284;28;20659;-69
2023/04/21 07:50:24;;;;;;;54.23;33.47;;;;;;;10.11;91.55;100862.56;5113154;28;20272;-69
2023/04/21 07:52:51;;;;;;;66.63;35.63;;;;;;;10.16;91.08;100860.41;5113166;28;20268;-68
2023/04/21 07:55:17;;;;;;;52.67;34.67;;;;;;;10.17;90.65;100864.78;5078254;28;20300;-69
2023/04/21 07:57:43;;;;;;;64.30;36.33;;;;;;;10.25;91.15;100859.78;5117349;28;20722;-69
2023/04/21 08:00:10;;;;;;;62.30;34.20;;;;;;;10.36;90.82;100862.59;5117585;28;20212;-69
2023/04/21 08:02:40;;;;;;;62.30;35.60;;;;;;;10.37;89.79;100867.00;5117505;28;20219;-68
2023/04/21 08:05:07;;;;;;;63.07;35.27;;;;;;;10.37;89.07;100868.84;5116868;28;20687;-69
2023/04/21 08:07:34;;;;;;;57.87;34.40;;;;;;;10.42;89.19;100870.22;5098887;28;20328;-69
2023/04/21 08:10:01;;;;;;;56.97;34.67;;;;;;;10.45;89.20;100861.13;5117091;28;20193;-69
2023/04/21 08:12:28;;;;;;;51.57;33.80;;;;;;;10.52;88.72;100869.59;5116694;28;20746;-69
2023/04/21 08:14:54;;;;;;;53.80;33.90;;;;;;;10.48;88.27;100868.94;5116610;28;20224;-69
2023/04/21 08:17:21;;;;;;;54.43;33.53;;;;;;;10.47;88.36;100861.88;5098622;28;20201;-69
2023/04/21 08:19:47;;;;;;;50.40;33.43;;;;;;;10.47;88.83;100853.84;5099057;28;20188;-69
2023/04/21 08:22:14;;;;;;;48.53;32.03;;;;;;;10.54;87.80;100851.59;5098563;28;20215;-69
2023/04/21 08:24:41;;;;;;;47.23;33.93;;;;;;;10.57;86.97;100865.63;5116501;28;20239;-69
2023/04/21 08:27:07;;;;;;;52.60;33.50;;;;;;;10.55;87.78;100869.38;5116436;28;20185;-68
2023/04/21 08:29:33;;;;;;;56.40;31.53;;;;;;;10.59;87.13;100866.38;5116468;28;20545;-68
2023/04/21 08:32:00;;;;;;;54.17;33.60;;;;;;;10.64;86.84;100866.91;5116310;28;20209;-68
2023/04/21 08:34:26;;;;;;;57.67;34.40;;;;;;;10.61;86.75;100864.44;5116681;28;20197;-69
2023/04/21 08:36:53;;;;;;;52.43;33.50;;;;;;;10.68;86.43;100874.72;5116763;28;20200;-69
2023/04/21 08:39:20;;;;;;;58.83;33.60;;;;;;;10.73;87.21;100875.28;5116310;28;20246;-68
2023/04/21 08:41:47;;;;;;;51.70;31.90;;;;;;;10.76;86.92;100881.28;5098439;28;20181;-68
2023/04/21 08:44:14;;;;;;;49.57;32.87;;;;;;;10.76;87.28;100883.94;5116701;28;20276;-69
2023/04/21 08:46:43;;;;;;;59.93;32.63;;;;;;;10.76;86.80;100872.38;5116692;28;20650;-69
2023/04/21 08:49:11;;;;;;;51.47;34.93;;;;;;;10.82;87.50;100880.84;5116402;28;20615;-69
2023/04/21 08:51:38;;;;;;;55.63;33.40;;;;;;;10.81;86.33;100881.78;5115968;28;20209;-68
2023/04/21 08:54:05;;;;;;;53.17;32.63;;;;;;;10.70;86.39;100887.03;5097923;28;20185;-68
2023/04/21 08:56:31;;;;;;;53.90;31.87;;;;;;;10.79;85.51;100878.38;5115915;28;20204;-68
2023/04/21 08:58:58;;;;;;;53.90;32.23;;;;;;;10.67;85.87;100881.06;5116457;28;20181;-68
2023/04/21 09:01:24;;;;;;;48.77;31.70;;;;;;;10.69;85.44;100879.97;5116103;28;20269;-68
2023/04/21 09:03:51;;;;;;;54.50;32.80;;;;;;;10.77;85.23;100876.75;5116046;28;20214;-68
2023/04/21 09:06:17;;;;;;;52.70;30.80;;;;;;;10.75;85.05;100884.94;5115663;28;20205;-69
2023/04/21 09:08:54;;;;;;;53.37;31.97;;;;;;;10.76;85.21;100880.41;5114770;28;20264;-68
2023/04/21 09:11:21;;;;;;;55.07;31.10;;;;;;;10.87;85.25;100877.84;5115934;28;20261;-68
2023/04/21 09:13:47;;;;;;;45.93;30.97;;;;;;;10.88;84.74;100882.22;5116194;28;20603;-68
2023/04/21 09:16:17;;;;;;;53.93;31.90;;;;;;;10.77;85.65;100888.31;5115545;28;20300;-68
2023/04/21 09:18:44;;;;;;;47.43;31.17;;;;;;;10.86;85.46;100886.84;5115762;28;20193;-68
2023/04/21 09:21:17;;;;;;;53.70;32.17;;;;;;;10.87;85.01;100880.53;5115467;28;20234;-68
2023/04/21 09:23:49;;;;;;;50.03;31.43;;;;;;;10.88;85.68;100881.38;5115962;28;20197;-68
2023/04/21 09:26:17;;;;;;;54.33;32.07;;;;;;;11.00;84.69;100884.03;5115462;28;20212;-69
2023/04/21 09:28:46;;;;;;;57.37;32.10;;;;;;;11.02;85.78;100882.09;5115175;28;20196;-68
2023/04/21 09:31:15;;;;;;;49.20;30.97;;;;;;;11.10;85.58;100878.03;5115205;28;20308;-68
2023/04/21 09:33:50;;;;;;;47.27;31.27;;;;;;;11.08;84.59;100872.75;5115164;28;20555;-68
2023/04/21 09:36:24;;;;;;;46.00;30.10;;;;;;;11.20;84.02;100881.75;5115395;28;20208;-68
2023/04/21 09:38:53;;;;;;;43.10;30.23;;;;;;;11.28;82.71;100882.06;5115376;28;20273;-68
2023/04/21 09:41:39;;;;;;;49.70;30.77;;;;;;;11.43;83.88;100882.78;5115868;28;20177;-68
2023/04/21 09:44:06;;;;;;;57.67;30.97;;;;;;;11.31;83.68;100884.53;5115283;28;20250;-68
2023/04/21 09:46:34;;;;;;;53.43;32.30;;;;;;;11.36;82.94;100884.19;5114853;28;20248;-68
2023/04/21 09:49:02;;;;;;;48.33;30.10;;;;;;;11.40;83.25;100881.16;5114863;28;20230;-68
2023/04/21 09:51:32;;;;;;;65.00;30.70;;;;;;;11.42;84.06;100881.91;5114834;28;20235;-68
2023/04/21 09:54:11;;;;;;;49.53;31.20;;;;;;;11.46;82.73;100880.72;5114867;28;20212;-68
2023/04/21 09:56:57;;;;;;;47.23;29.77;;;;;;;11.47;83.24;100879.75;5114993;28;20322;-68
2023/04/21 09:59:35;;;;;;;43.47;29.43;;;;;;;11.46;83.17;100882.53;5114726;28;20623;-68
2023/04/21 10:02:04;;;;;;;46.30;30.73;;;;;;;11.41;81.84;100865.94;5114831;28;20173;-68
2023/04/21 10:04:33;;;;;;;50.33;31.43;;;;;;;11.43;81.60;100872.91;5114489;28;20181;-68
2023/04/21 10:07:00;;;;;;;45.90;29.20;;;;;;;11.47;81.44;100866.34;5115119;28;20181;-68
2023/04/21 10:09:35;;;;;;;47.37;29.90;;;;;;;11.54;80.97;100855.16;5114766;28;20189;-68
2023/04/21 10:12:03;;;;;;;46.77;29.30;;;;;;;11.69;81.19;100856.72;5114703;28;20196;-68
2023/04/21 10:14:30;;;;;;;38.17;27.83;;;;;;;11.76;82.75;100862.50;5114278;28;20185;-69
2023/04/21 10:17:03;;;;;;;48.00;27.97;;;;;;;11.85;82.46;100859.97;5114362;28;20192;-68
2023/04/21 10:19:35;;;;;;;44.77;29.63;;;;;;;11.91;80.87;100853.31;5114506;28;20170;-68
2023/04/21 10:22:01;;;;;;;48.10;29.00;;;;;;;11.89;80.05;100842.66;5114258;28;20199;-68
2023/04/21 10:24:29;;;;;;;46.37;30.23;;;;;;;11.93;80.53;100832.56;5114339;28;20181;-69
2023/04/21 10:26:58;;;;;;;46.03;29.60;;;;;;;11.83;80.07;100843.13;5096005;28;20276;-68
2023/04/21 10:29:30;;;;;;;44.50;27.93;;;;;;;12.02;80.06;100833.69;5114953;28;20211;-68
2023/04/21 10:32:30;;;;;;;44.83;29.07;;;;;;;12.12;80.05;100832.88;5114340;28;20325;-68
2023/04/21 10:34:57;;;;;;;44.37;29.53;;;;;;;12.09;79.85;100837.63;5114420;28;20208;-68
2023/04/21 10:37:23;;;;;;;46.97;30.03;;;;;;;12.17;79.12;100837.91;5114329;28;20191;-68
2023/04/21 10:39:53;;;;;;;52.27;29.83;;;;;;;12.13;79.36;100831.03;5114177;28;20638;-68
2023/04/21 10:42:28;;;;;;;49.57;29.17;;;;;;;12.21;78.54;100842.06;5114194;28;20234;-67
2023/04/21 10:44:55;;;;;;;41.90;28.77;;;;;;;12.30;78.52;100837.78;5113798;28;20201;-68
2023/04/21 10:47:43;;;;;;;45.83;28.37;;;;;;;12.30;79.65;100844.03;5113889;28;20271;-67
2023/04/21 10:50:27;;;;;;;43.87;28.33;;;;;;;12.35;78.79;100851.72;5114484;28;20260;-67
2023/04/21 10:53:11;;;;;;;44.93;29.27;;;;;;;12.42;79.08;100827.94;5113802;28;20204;-67
2023/04/21 10:55:38;;;;;;;49.20;30.23;;;;;;;12.32;79.84;100830.47;5113981;28;20230;-68
2023/04/21 10:58:08;;;;;;;49.87;30.33;;;;;;;12.46;79.12;100826.72;5095530;28;20224;-67
2023/04/21 11:00:37;;;;;;;37.40;27.97;;;;;;;12.44;78.58;100821.47;5096340;28;20603;-67
2023/04/21 11:03:05;;;;;;;46.43;29.83;;;;;;;12.48;78.60;100819.41;5113767;28;20182;-68
2023/04/21 11:05:38;;;;;;;46.27;29.63;;;;;;;12.61;79.03;100816.59;5113905;28;20209;-68
2023/04/21 11:08:14;;;;;;;56.23;29.57;;;;;;;12.54;78.29;100819.75;5114472;28;20193;-68
2023/04/21 11:10:59;;;;;;;38.27;27.77;;;;;;;12.57;79.29;100813.31;5113928;28;20165;-68
2023/04/21 11:13:32;;;;;;;39.77;28.00;;;;;;;12.66;78.65;100814.41;5114280;28;20715;-67
2023/04/21 11:16:05;;;;;;;47.70;30.57;;;;;;;12.70;78.50;100814.03;5113998;28;20233;-68
2023/04/21 11:18:37;;;;;;;40.27;26.93;;;;;;;12.64;78.02;100813.66;5113829;28;20174;-68